Folsom, West Virginia
Current Conditions -  °F | °C
As of 12:53 AM on Friday 28 Nov 2014 (Local Time) from KCKB Reporting Station
Overcast Overcast  
Wind Chill: 22°   Ceiling: 2400
Heat Index: 29°   Visibility: 10mi
Dew Point: 25°   Wind: 7mph
Humidity: 85%   Direction: 270°W
Pressure: 30.25"   Gusts: NA
Location:  39.47°N, 80.52°W
Report Text: KCKB 280553Z AUTO 27006KT 10SM SCT019 BKN024 OVC031 M02/M04 A3025 RMK AO2 SNB08E18 SLP249 P0000 60001 T10171039 11011 21017 58002 TSNO
Loading
Personal Weather Stations






























Interactive Weather Map New forecast layout! Learn more

10-Day Weather Forecast

Advertisements
Track Severe Weather on mobile